createdAt,value
2018-02-10T00:00:35.672Z,1006.95
2018-02-10T00:01:10.782Z,1006.97
2018-02-10T00:01:46.022Z,1006.93
2018-02-10T00:02:21.307Z,1006.95
2018-02-10T00:02:56.521Z,1006.93
2018-02-10T00:03:31.852Z,1006.91
2018-02-10T00:04:07.226Z,1006.93
2018-02-10T00:04:42.652Z,1006.92
2018-02-10T00:05:18.164Z,1006.90
2018-02-10T00:05:53.694Z,1006.91
2018-02-10T00:06:28.868Z,1006.92
2018-02-10T00:07:04.400Z,1006.89
2018-02-10T00:07:39.805Z,1006.90
2018-02-10T00:08:14.917Z,1006.92
2018-02-10T00:08:50.312Z,1006.94
2018-02-10T00:09:25.730Z,1006.89
2018-02-10T00:10:00.997Z,1006.95
2018-02-10T00:10:36.720Z,1006.94
2018-02-10T00:11:11.972Z,1006.93
2018-02-10T00:11:47.783Z,1006.95
2018-02-10T00:12:23.331Z,1006.93
2018-02-10T00:12:58.520Z,1006.91
2018-02-10T00:13:33.820Z,1006.90
2018-02-10T00:14:09.305Z,1006.88
2018-02-10T00:14:44.515Z,1006.91
2018-02-10T00:15:19.900Z,1006.92
2018-02-10T00:15:56.210Z,1006.91
2018-02-10T00:16:31.523Z,1006.90
2018-02-10T00:17:06.742Z,1006.92
2018-02-10T00:17:41.846Z,1006.93
2018-02-10T00:18:17.058Z,1006.93
2018-02-10T00:18:52.360Z,1006.95
2018-02-10T00:19:27.757Z,1006.92
2018-02-10T00:20:03.253Z,1006.93
2018-02-10T00:20:39.870Z,1006.93
2018-02-10T00:21:15.275Z,1006.94
2018-02-10T00:21:50.920Z,1006.93
2018-02-10T00:22:26.197Z,1006.96
2018-02-10T00:23:01.537Z,1006.94
2018-02-10T00:23:36.648Z,1006.99
2018-02-10T00:24:12.128Z,1006.96
2018-02-10T00:24:47.638Z,1006.95
2018-02-10T00:25:23.312Z,1006.94
2018-02-10T00:25:59.437Z,1006.93
2018-02-10T00:26:34.914Z,1006.94
2018-02-10T00:27:10.137Z,1006.94
2018-02-10T00:27:45.221Z,1006.92
2018-02-10T00:28:20.542Z,1006.96
2018-02-10T00:28:55.814Z,1006.95
2018-02-10T00:29:31.004Z,1006.90
2018-02-10T00:30:06.415Z,1006.93
2018-02-10T00:30:43.082Z,1006.89
2018-02-10T00:31:18.278Z,1006.87
2018-02-10T00:31:53.445Z,1006.85
2018-02-10T00:32:29.433Z,1006.86
2018-02-10T00:33:05.108Z,1006.84
2018-02-10T00:33:40.437Z,1006.86
2018-02-10T00:34:15.710Z,1006.87
2018-02-10T00:34:50.904Z,1006.84
2018-02-10T00:35:26.209Z,1006.86
2018-02-10T00:36:01.284Z,1006.85
2018-02-10T00:36:36.800Z,1006.88
2018-02-10T00:37:12.373Z,1006.83
2018-02-10T00:37:47.365Z,1006.85
2018-02-10T00:38:23.240Z,1006.85
2018-02-10T00:38:58.968Z,1006.85
2018-02-10T00:39:34.446Z,1006.84
2018-02-10T00:40:10.039Z,1006.87
2018-02-10T00:40:46.820Z,1006.85
2018-02-10T00:41:22.119Z,1006.84
2018-02-10T00:41:57.520Z,1006.88
2018-02-10T00:42:32.813Z,1006.86
2018-02-10T00:43:07.902Z,1006.89
2018-02-10T00:43:43.379Z,1006.88
2018-02-10T00:44:18.612Z,1006.84
2018-02-10T00:44:53.875Z,1006.90
2018-02-10T00:45:29.178Z,1006.90
2018-02-10T00:46:04.548Z,1006.88
2018-02-10T00:46:40.146Z,1006.86
2018-02-10T00:47:15.419Z,1006.87
2018-02-10T00:47:50.520Z,1006.89
2018-02-10T00:48:25.829Z,1006.83
2018-02-10T00:49:01.807Z,1006.91
2018-02-10T00:49:37.144Z,1006.89
2018-02-10T00:50:12.234Z,1006.91
2018-02-10T00:50:48.125Z,1006.88
2018-02-10T00:51:23.393Z,1006.84
2018-02-10T00:51:58.698Z,1006.89
2018-02-10T00:52:33.773Z,1006.88
2018-02-10T00:53:09.086Z,1006.91
2018-02-10T00:53:44.447Z,1006.89
2018-02-10T00:54:19.646Z,1006.88
2018-02-10T00:54:55.075Z,1006.92
2018-02-10T00:55:30.254Z,1006.92
2018-02-10T00:56:05.867Z,1006.93
2018-02-10T00:56:41.053Z,1006.92
2018-02-10T00:57:16.675Z,1006.89
2018-02-10T00:57:52.255Z,1006.91
2018-02-10T00:58:27.952Z,1006.96
2018-02-10T00:59:03.230Z,1006.90
2018-02-10T00:59:38.526Z,1006.93
2018-02-10T01:00:13.956Z,1006.93
2018-02-10T01:00:50.446Z,1006.93
2018-02-10T01:01:25.640Z,1006.93
2018-02-10T01:02:01.112Z,1006.93
2018-02-10T01:02:36.409Z,1006.93
2018-02-10T01:03:11.686Z,1006.89
2018-02-10T01:03:47.179Z,1006.92
2018-02-10T01:04:22.453Z,1006.97
2018-02-10T01:04:57.653Z,1006.97
2018-02-10T01:05:33.261Z,1006.96
2018-02-10T01:06:08.817Z,1006.98
2018-02-10T01:06:45.174Z,1006.96
2018-02-10T01:07:20.853Z,1006.97
2018-02-10T01:07:56.162Z,1006.94
2018-02-10T01:08:31.438Z,1006.98
2018-02-10T01:09:06.656Z,1006.96
2018-02-10T01:09:42.335Z,1006.94
2018-02-10T01:10:17.538Z,1006.96
2018-02-10T01:10:52.738Z,1006.93
2018-02-10T01:11:28.242Z,1006.95
2018-02-10T01:12:03.852Z,1006.95
2018-02-10T01:12:39.432Z,1006.97
2018-02-10T01:13:14.633Z,1006.94
2018-02-10T01:13:51.313Z,1007.02
2018-02-10T01:14:26.623Z,1006.96
2018-02-10T01:15:01.806Z,1006.96
2018-02-10T01:15:38.032Z,1006.97
2018-02-10T01:16:13.354Z,1007.00
2018-02-10T01:16:48.554Z,1006.94
2018-02-10T01:17:24.133Z,1006.96
2018-02-10T01:17:59.430Z,1006.98
2018-02-10T01:18:34.863Z,1006.95
2018-02-10T01:19:10.141Z,1006.97
2018-02-10T01:19:45.652Z,1006.96
2018-02-10T01:20:21.118Z,1007.00
2018-02-10T01:20:56.524Z,1006.99
2018-02-10T01:21:31.934Z,1006.99
2018-02-10T01:22:07.438Z,1007.00
2018-02-10T01:22:43.021Z,1007.02
2018-02-10T01:23:18.337Z,1006.98
2018-02-10T01:23:53.818Z,1007.00
2018-02-10T01:24:29.426Z,1006.97
2018-02-10T01:25:04.839Z,1006.97
2018-02-10T01:25:41.123Z,1007.00
2018-02-10T01:26:16.525Z,1006.97
2018-02-10T01:26:51.937Z,1007.04
2018-02-10T01:27:27.249Z,1006.98
2018-02-10T01:28:02.840Z,1006.99
2018-02-10T01:28:38.258Z,1006.96
2018-02-10T01:29:13.648Z,1006.96
2018-02-10T01:29:48.954Z,1007.01
2018-02-10T01:30:24.263Z,1006.96
2018-02-10T01:31:00.039Z,1007.01
2018-02-10T01:31:35.635Z,1006.96
2018-02-10T01:32:10.968Z,1006.97
2018-02-10T01:32:45.969Z,1006.91
2018-02-10T01:33:21.248Z,1006.95
2018-02-10T01:33:56.461Z,1006.96
2018-02-10T01:34:31.726Z,1006.97
2018-02-10T01:35:07.054Z,1006.97
2018-02-10T01:35:42.231Z,1006.97
2018-02-10T01:36:17.233Z,1006.98
2018-02-10T01:36:52.299Z,1006.95
2018-02-10T01:37:27.448Z,1007.00
2018-02-10T01:38:02.659Z,1007.01
2018-02-10T01:38:37.834Z,1006.98
2018-02-10T01:39:13.438Z,1007.02
2018-02-10T01:39:48.810Z,1006.98
2018-02-10T01:40:24.123Z,1007.05
2018-02-10T01:40:59.615Z,1006.99
2018-02-10T01:41:34.840Z,1006.98
2018-02-10T01:42:10.212Z,1006.99
2018-02-10T01:42:45.848Z,1006.99
2018-02-10T01:43:20.926Z,1006.99
2018-02-10T01:43:56.322Z,1006.96
2018-02-10T01:44:31.627Z,1006.98
2018-02-10T01:45:07.211Z,1007.00
2018-02-10T01:45:45.230Z,1006.96
2018-02-10T01:46:20.701Z,1006.98
2018-02-10T01:46:55.914Z,1007.00
2018-02-10T01:47:31.493Z,1007.00
2018-02-10T01:48:07.036Z,1007.00
2018-02-10T01:48:42.122Z,1007.00
2018-02-10T01:49:17.630Z,1007.00
2018-02-10T01:49:53.045Z,1006.99
2018-02-10T01:50:28.319Z,1007.01
2018-02-10T01:51:03.518Z,1007.03
2018-02-10T01:51:39.105Z,1007.04
2018-02-10T01:52:14.403Z,1007.05
2018-02-10T01:52:49.487Z,1007.04
2018-02-10T01:53:24.837Z,1007.01
2018-02-10T01:54:00.010Z,1007.06
2018-02-10T01:54:35.513Z,1007.04
2018-02-10T01:55:11.012Z,1007.02
2018-02-10T01:55:46.437Z,1007.05
2018-02-10T01:56:21.946Z,1007.00
2018-02-10T01:56:57.231Z,1007.00
2018-02-10T01:57:32.431Z,1007.06
2018-02-10T01:58:07.744Z,1007.06
2018-02-10T01:58:44.181Z,1007.07
2018-02-10T01:59:19.569Z,1007.06
2018-02-10T01:59:54.886Z,1007.10
2018-02-10T02:00:30.181Z,1007.09
2018-02-10T02:01:06.318Z,1007.09
2018-02-10T02:01:41.736Z,1007.11
2018-02-10T02:02:16.842Z,1007.10
2018-02-10T02:02:52.353Z,1007.13
2018-02-10T02:03:28.231Z,1007.11
2018-02-10T02:04:03.769Z,1007.09
2018-02-10T02:04:39.257Z,1007.11
2018-02-10T02:05:14.774Z,1007.09
2018-02-10T02:05:51.548Z,1007.08
2018-02-10T02:06:26.850Z,1007.10
2018-02-10T02:07:02.334Z,1007.08
2018-02-10T02:07:37.643Z,1007.06
2018-02-10T02:08:13.056Z,1007.11
2018-02-10T02:08:48.450Z,1007.06
2018-02-10T02:09:23.802Z,1007.12
2018-02-10T02:09:58.981Z,1007.09
2018-02-10T02:10:34.390Z,1007.08
2018-02-10T02:11:09.570Z,1007.10
2018-02-10T02:11:44.877Z,1007.02
2018-02-10T02:12:20.059Z,1007.07
2018-02-10T02:12:55.155Z,1007.03
2018-02-10T02:13:30.248Z,1007.03
2018-02-10T02:14:05.749Z,1007.04
2018-02-10T02:14:40.991Z,1007.02
2018-02-10T02:15:16.559Z,1007.04
2018-02-10T02:15:52.873Z,1007.06
2018-02-10T02:16:28.347Z,1007.02
2018-02-10T02:17:03.649Z,1007.05
2018-02-10T02:17:38.929Z,1007.00
2018-02-10T02:18:14.030Z,1007.02
2018-02-10T02:18:49.547Z,1007.03
2018-02-10T02:19:24.647Z,1007.03
2018-02-10T02:20:00.114Z,1006.99
2018-02-10T02:20:36.218Z,1006.98
2018-02-10T02:21:11.750Z,1007.02
2018-02-10T02:21:47.088Z,1007.01
2018-02-10T02:22:22.598Z,1007.05
2018-02-10T02:22:58.202Z,1006.97
2018-02-10T02:23:33.635Z,1006.96
2018-02-10T02:24:09.338Z,1006.94
2018-02-10T02:24:45.685Z,1006.96
2018-02-10T02:25:21.033Z,1006.95
2018-02-10T02:25:56.436Z,1006.98
2018-02-10T02:26:31.794Z,1006.99
2018-02-10T02:27:07.190Z,1006.95
2018-02-10T02:27:43.925Z,1006.94
2018-02-10T02:28:19.321Z,1006.95
2018-02-10T02:28:54.738Z,1006.96
2018-02-10T02:29:29.935Z,1006.93
2018-02-10T02:30:05.154Z,1006.94
2018-02-10T02:30:42.873Z,1006.98
2018-02-10T02:31:18.104Z,1006.98
2018-02-10T02:31:53.740Z,1006.97
2018-02-10T02:32:28.945Z,1006.97
2018-02-10T02:33:04.274Z,1006.95
2018-02-10T02:33:39.570Z,1006.97
2018-02-10T02:34:14.802Z,1006.96
2018-02-10T02:34:50.186Z,1007.00
2018-02-10T02:35:25.407Z,1006.97
2018-02-10T02:36:00.734Z,1007.02
2018-02-10T02:36:36.154Z,1007.05
2018-02-10T02:37:11.759Z,1007.01
2018-02-10T02:37:47.079Z,1007.00
2018-02-10T02:38:22.411Z,1007.01
2018-02-10T02:38:57.500Z,1007.01
2018-02-10T02:39:32.825Z,1007.01
2018-02-10T02:40:08.226Z,1007.01
2018-02-10T02:40:45.452Z,1007.01
2018-02-10T02:41:20.860Z,1006.96
2018-02-10T02:41:56.184Z,1006.98
2018-02-10T02:42:31.586Z,1007.00
2018-02-10T02:43:07.102Z,1006.94
2018-02-10T02:43:42.522Z,1006.96
2018-02-10T02:44:17.793Z,1006.93
2018-02-10T02:44:53.197Z,1006.95
2018-02-10T02:45:28.491Z,1006.97
2018-02-10T02:46:03.689Z,1006.92
2018-02-10T02:46:39.193Z,1006.92
2018-02-10T02:47:14.394Z,1006.90
2018-02-10T02:47:49.897Z,1006.92
2018-02-10T02:48:25.206Z,1006.92
2018-02-10T02:49:00.184Z,1006.90
2018-02-10T02:49:35.701Z,1006.90
2018-02-10T02:50:10.928Z,1006.90
2018-02-10T02:50:46.928Z,1006.91
2018-02-10T02:51:22.177Z,1006.92
2018-02-10T02:51:57.481Z,1006.88
2018-02-10T02:52:33.006Z,1006.85
2018-02-10T02:53:08.186Z,1006.93
2018-02-10T02:53:45.303Z,1006.90
2018-02-10T02:54:20.595Z,1006.95
2018-02-10T02:54:56.015Z,1006.94
2018-02-10T02:55:31.607Z,1006.93
2018-02-10T02:56:07.105Z,1006.90
2018-02-10T02:56:42.410Z,1006.92
2018-02-10T02:57:17.734Z,1006.92
2018-02-10T02:57:53.049Z,1006.94
2018-02-10T02:58:28.325Z,1006.93
2018-02-10T02:59:03.439Z,1006.90
2018-02-10T02:59:38.730Z,1006.93
2018-02-10T03:00:14.251Z,1006.91
2018-02-10T03:00:49.644Z,1006.93
2018-02-10T03:01:24.766Z,1006.92
2018-02-10T03:02:00.800Z,1006.91
2018-02-10T03:02:36.246Z,1006.90
2018-02-10T03:03:11.468Z,1006.94
2018-02-10T03:03:47.136Z,1006.92
2018-02-10T03:04:22.455Z,1006.93
2018-02-10T03:04:57.748Z,1006.98
2018-02-10T03:05:33.164Z,1006.95
2018-02-10T03:06:08.361Z,1006.92
2018-02-10T03:06:43.983Z,1006.92
2018-02-10T03:07:19.176Z,1006.98
2018-02-10T03:07:54.626Z,1006.93
2018-02-10T03:08:30.344Z,1006.98
2018-02-10T03:09:05.648Z,1006.96
2018-02-10T03:09:40.953Z,1006.98
2018-02-10T03:10:16.622Z,1006.94
2018-02-10T03:10:54.028Z,1006.97
2018-02-10T03:11:29.505Z,1006.98
2018-02-10T03:12:05.128Z,1006.95
2018-02-10T03:12:40.397Z,1006.95
2018-02-10T03:13:15.837Z,1006.92
2018-02-10T03:13:51.346Z,1006.96
2018-02-10T03:14:26.515Z,1006.96
2018-02-10T03:15:01.914Z,1006.92
2018-02-10T03:15:37.581Z,1006.94
2018-02-10T03:16:12.974Z,1006.92
2018-02-10T03:16:48.347Z,1006.95
2018-02-10T03:17:23.838Z,1006.91
2018-02-10T03:17:59.225Z,1006.94
2018-02-10T03:18:34.672Z,1006.94
2018-02-10T03:19:10.248Z,1006.92
2018-02-10T03:19:45.575Z,1006.92
2018-02-10T03:20:20.979Z,1006.93
2018-02-10T03:20:56.371Z,1006.95
2018-02-10T03:21:31.679Z,1006.94
2018-02-10T03:22:06.769Z,1006.98
2018-02-10T03:22:42.489Z,1006.98
2018-02-10T03:23:17.666Z,1007.02
2018-02-10T03:23:54.523Z,1006.99
2018-02-10T03:24:29.805Z,1007.02
2018-02-10T03:25:05.219Z,1007.02
2018-02-10T03:25:41.604Z,1007.00
2018-02-10T03:26:16.712Z,1006.99
2018-02-10T03:26:52.236Z,1007.04
2018-02-10T03:27:27.717Z,1007.01
2018-02-10T03:28:03.034Z,1007.02
2018-02-10T03:28:38.126Z,1006.99
2018-02-10T03:29:13.361Z,1007.00
2018-02-10T03:29:48.952Z,1007.01
2018-02-10T03:30:24.283Z,1007.01
2018-02-10T03:30:59.462Z,1007.03
2018-02-10T03:31:34.866Z,1007.02
2018-02-10T03:32:10.147Z,1007.01
2018-02-10T03:32:45.453Z,1007.00
2018-02-10T03:33:21.340Z,1007.03
2018-02-10T03:33:56.956Z,1007.03
2018-02-10T03:34:32.305Z,1007.03
2018-02-10T03:35:07.592Z,1007.01
2018-02-10T03:35:43.399Z,1007.04
2018-02-10T03:36:18.994Z,1007.02
2018-02-10T03:36:54.404Z,1007.02
2018-02-10T03:37:29.785Z,1007.01
2018-02-10T03:38:04.907Z,1007.03
2018-02-10T03:38:40.486Z,1007.05
2018-02-10T03:39:16.114Z,1007.05
2018-02-10T03:39:51.433Z,1007.06
2018-02-10T03:40:26.838Z,1007.08
2018-02-10T03:41:02.242Z,1007.10
2018-02-10T03:41:37.637Z,1007.09
2018-02-10T03:42:13.040Z,1007.12
2018-02-10T03:42:48.621Z,1007.08
2018-02-10T03:43:23.845Z,1007.08
2018-02-10T03:43:59.335Z,1007.13
2018-02-10T03:44:35.050Z,1007.11
2018-02-10T03:45:10.266Z,1007.08
2018-02-10T03:45:50.272Z,1007.09
2018-02-10T03:46:25.901Z,1007.10
2018-02-10T03:47:01.183Z,1007.09
2018-02-10T03:47:36.693Z,1007.07
2018-02-10T03:48:12.281Z,1007.06
2018-02-10T03:48:47.490Z,1007.06
2018-02-10T03:49:22.581Z,1007.04
2018-02-10T03:49:57.994Z,1007.08
2018-02-10T03:50:33.315Z,1007.10
2018-02-10T03:51:08.528Z,1007.06
2018-02-10T03:51:43.918Z,1007.08
2018-02-10T03:52:19.236Z,1007.09
2018-02-10T03:52:54.554Z,1007.11
2018-02-10T03:53:30.055Z,1007.11
2018-02-10T03:54:05.389Z,1007.04
2018-02-10T03:54:40.777Z,1007.07
2018-02-10T03:55:16.091Z,1007.07
2018-02-10T03:55:51.509Z,1007.03
2018-02-10T03:56:27.227Z,1007.03
2018-02-10T03:57:02.322Z,1007.07
2018-02-10T03:57:38.022Z,1007.07
2018-02-10T03:58:13.347Z,1007.06
2018-02-10T03:58:48.643Z,1007.05
2018-02-10T03:59:23.863Z,1007.08
2018-02-10T03:59:59.451Z,1007.11
2018-02-10T04:00:34.971Z,1007.12
2018-02-10T04:01:10.187Z,1007.09
2018-02-10T04:01:45.705Z,1007.12
2018-02-10T04:02:21.190Z,1007.12
2018-02-10T04:02:56.402Z,1007.15
2018-02-10T04:03:31.785Z,1007.12
2018-02-10T04:04:07.306Z,1007.18
2018-02-10T04:04:44.260Z,1007.21
2018-02-10T04:05:19.449Z,1007.21
2018-02-10T04:05:54.575Z,1007.19
2018-02-10T04:06:30.017Z,1007.23
2018-02-10T04:07:05.331Z,1007.23
2018-02-10T04:07:40.730Z,1007.24
2018-02-10T04:08:16.354Z,1007.25
2018-02-10T04:08:51.745Z,1007.26
2018-02-10T04:09:27.367Z,1007.27
2018-02-10T04:10:04.759Z,1007.28
2018-02-10T04:10:44.382Z,1007.27
2018-02-10T04:11:19.806Z,1007.27
2018-02-10T04:11:58.533Z,1007.29
2018-02-10T04:12:35.652Z,1007.28
2018-02-10T04:13:10.845Z,1007.32
2018-02-10T04:13:46.385Z,1007.30
2018-02-10T04:14:21.884Z,1007.28
2018-02-10T04:14:57.202Z,1007.31
2018-02-10T04:15:32.427Z,1007.29
2018-02-10T04:16:07.619Z,1007.27
2018-02-10T04:16:45.944Z,1007.31
2018-02-10T04:17:20.967Z,1007.30
2018-02-10T04:17:56.485Z,1007.33
2018-02-10T04:18:31.776Z,1007.31
2018-02-10T04:19:07.206Z,1007.33
2018-02-10T04:19:42.403Z,1007.29
2018-02-10T04:20:17.718Z,1007.30
2018-02-10T04:20:53.415Z,1007.33
2018-02-10T04:21:28.734Z,1007.33
2018-02-10T04:22:04.064Z,1007.31
2018-02-10T04:22:39.685Z,1007.32
2018-02-10T04:23:17.603Z,1007.32
2018-02-10T04:23:55.299Z,1007.34
2018-02-10T04:24:30.917Z,1007.34
2018-02-10T04:25:06.227Z,1007.37
2018-02-10T04:25:44.773Z,1007.39
2018-02-10T04:26:20.304Z,1007.40
2018-02-10T04:26:59.092Z,1007.38
2018-02-10T04:27:34.922Z,1007.37
2018-02-10T04:28:10.432Z,1007.36
2018-02-10T04:28:45.749Z,1007.37
2018-02-10T04:29:20.845Z,1007.36
2018-02-10T04:29:57.662Z,1007.37
2018-02-10T04:30:33.076Z,1007.40
2018-02-10T04:31:08.396Z,1007.38
2018-02-10T04:31:43.820Z,1007.37
2018-02-10T04:32:20.718Z,1007.43
2018-02-10T04:32:55.983Z,1007.38
2018-02-10T04:33:31.410Z,1007.40
2018-02-10T04:34:06.726Z,1007.38
2018-02-10T04:34:41.916Z,1007.43
2018-02-10T04:35:17.840Z,1007.47
2018-02-10T04:35:53.227Z,1007.44
2018-02-10T04:36:28.551Z,1007.41
2018-02-10T04:37:04.041Z,1007.42
2018-02-10T04:37:42.568Z,1007.42
2018-02-10T04:38:19.188Z,1007.41
2018-02-10T04:38:54.513Z,1007.43
2018-02-10T04:39:29.749Z,1007.42
2018-02-10T04:40:05.043Z,1007.36
2018-02-10T04:40:40.667Z,1007.38
2018-02-10T04:41:16.138Z,1007.35
2018-02-10T04:41:51.166Z,1007.33
2018-02-10T04:42:27.762Z,1007.37
2018-02-10T04:43:03.088Z,1007.35
2018-02-10T04:43:38.584Z,1007.36
2018-02-10T04:44:17.743Z,1007.35
2018-02-10T04:44:53.362Z,1007.34
2018-02-10T04:45:28.859Z,1007.38
2018-02-10T04:46:04.590Z,1007.41
2018-02-10T04:46:42.903Z,1007.42
2018-02-10T04:47:18.523Z,1007.40
2018-02-10T04:47:56.870Z,1007.40
2018-02-10T04:48:32.244Z,1007.42
2018-02-10T04:49:07.470Z,1007.42
2018-02-10T04:49:43.005Z,1007.43
2018-02-10T04:50:18.329Z,1007.44
2018-02-10T04:50:58.436Z,1007.44
2018-02-10T04:51:33.772Z,1007.45
2018-02-10T04:52:09.154Z,1007.45
2018-02-10T04:52:44.879Z,1007.42
2018-02-10T04:53:20.422Z,1007.40
2018-02-10T04:53:56.212Z,1007.39
2018-02-10T04:54:31.344Z,1007.40
2018-02-10T04:55:06.463Z,1007.38
2018-02-10T04:55:46.086Z,1007.40
2018-02-10T04:56:21.574Z,1007.39
2018-02-10T04:56:57.199Z,1007.38
2018-02-10T04:57:32.588Z,1007.37
2018-02-10T04:58:08.119Z,1007.34
2018-02-10T04:58:43.514Z,1007.40
2018-02-10T04:59:18.849Z,1007.41
2018-02-10T04:59:55.570Z,1007.38
2018-02-10T05:00:31.102Z,1007.41
2018-02-10T05:01:12.744Z,1007.43
2018-02-10T05:01:51.266Z,1007.44
2018-02-10T05:02:26.589Z,1007.43
2018-02-10T05:03:09.201Z,1007.46
2018-02-10T05:03:44.421Z,1007.42
2018-02-10T05:04:19.543Z,1007.47
2018-02-10T05:04:54.937Z,1007.43
2018-02-10T05:05:30.438Z,1007.45
2018-02-10T05:06:05.741Z,1007.45
2018-02-10T05:06:41.874Z,1007.44
2018-02-10T05:07:17.369Z,1007.44
2018-02-10T05:07:52.786Z,1007.46
2018-02-10T05:08:27.971Z,1007.46
2018-02-10T05:09:03.291Z,1007.47
2018-02-10T05:09:38.401Z,1007.47
2018-02-10T05:10:16.285Z,1007.43
2018-02-10T05:10:54.706Z,1007.45
2018-02-10T05:11:30.006Z,1007.44
2018-02-10T05:12:05.127Z,1007.48
2018-02-10T05:12:40.426Z,1007.44
2018-02-10T05:13:15.626Z,1007.42
2018-02-10T05:13:50.911Z,1007.46
2018-02-10T05:14:26.417Z,1007.42
2018-02-10T05:15:01.709Z,1007.44
2018-02-10T05:15:38.026Z,1007.43
2018-02-10T05:16:16.525Z,1007.45
2018-02-10T05:16:51.669Z,1007.43
2018-02-10T05:17:26.760Z,1007.42
2018-02-10T05:18:01.942Z,1007.43
2018-02-10T05:18:37.261Z,1007.44
2018-02-10T05:19:12.642Z,1007.42
2018-02-10T05:19:50.560Z,1007.43
2018-02-10T05:20:26.139Z,1007.44
2018-02-10T05:21:05.514Z,1007.42
2018-02-10T05:21:40.610Z,1007.43
2018-02-10T05:22:15.927Z,1007.43
2018-02-10T05:22:51.231Z,1007.43
2018-02-10T05:23:30.114Z,1007.44
2018-02-10T05:24:05.616Z,1007.45
2018-02-10T05:24:43.394Z,1007.44
2018-02-10T05:25:21.518Z,1007.47
2018-02-10T05:25:56.691Z,1007.44
2018-02-10T05:26:32.494Z,1007.43
2018-02-10T05:27:10.501Z,1007.50
2018-02-10T05:27:45.707Z,1007.51
2018-02-10T05:28:21.029Z,1007.48
2018-02-10T05:28:56.505Z,1007.50
2018-02-10T05:29:31.516Z,1007.49
2018-02-10T05:30:06.793Z,1007.49
2018-02-10T05:30:42.998Z,1007.47
2018-02-10T05:31:24.622Z,1007.48
2018-02-10T05:31:59.803Z,1007.45
2018-02-10T05:32:36.751Z,1007.44
2018-02-10T05:33:11.926Z,1007.44
2018-02-10T05:33:50.453Z,1007.42
2018-02-10T05:34:27.129Z,1007.43
2018-02-10T05:35:02.531Z,1007.39
2018-02-10T05:35:38.646Z,1007.38
2018-02-10T05:36:16.763Z,1007.38
2018-02-10T05:36:52.188Z,1007.36
2018-02-10T05:37:27.472Z,1007.38
2018-02-10T05:38:02.714Z,1007.37
2018-02-10T05:38:38.207Z,1007.39
2018-02-10T05:39:13.311Z,1007.38
2018-02-10T05:39:53.691Z,1007.36
2018-02-10T05:40:29.198Z,1007.43
2018-02-10T05:41:07.618Z,1007.39
2018-02-10T05:41:43.015Z,1007.41
2018-02-10T05:42:18.331Z,1007.41
2018-02-10T05:42:57.117Z,1007.43
2018-02-10T05:43:34.749Z,1007.43
2018-02-10T05:44:09.940Z,1007.43
2018-02-10T05:44:51.453Z,1007.41
2018-02-10T05:45:26.771Z,1007.41
2018-02-10T05:46:02.963Z,1007.42
2018-02-10T05:46:38.492Z,1007.42
2018-02-10T05:47:13.871Z,1007.43
2018-02-10T05:47:52.980Z,1007.43
2018-02-10T05:48:29.164Z,1007.41
2018-02-10T05:49:06.800Z,1007.40
2018-02-10T05:49:42.187Z,1007.39
2018-02-10T05:50:17.795Z,1007.35
2018-02-10T05:50:53.096Z,1007.35
2018-02-10T05:51:30.882Z,1007.38
2018-02-10T05:52:10.087Z,1007.35
2018-02-10T05:52:48.692Z,1007.39
2018-02-10T05:53:24.183Z,1007.36
2018-02-10T05:54:01.377Z,1007.35
2018-02-10T05:54:37.705Z,1007.35
2018-02-10T05:55:12.911Z,1007.35
2018-02-10T05:55:48.493Z,1007.34
2018-02-10T05:56:23.711Z,1007.35
2018-02-10T05:56:58.804Z,1007.36
2018-02-10T05:57:34.401Z,1007.39
2018-02-10T05:58:09.489Z,1007.37
2018-02-10T05:58:44.906Z,1007.38
2018-02-10T05:59:20.300Z,1007.39
2018-02-10T05:59:57.443Z,1007.41
2018-02-10T06:00:33.023Z,1007.35
2018-02-10T06:01:08.468Z,1007.39
2018-02-10T06:01:46.558Z,1007.40
2018-02-10T06:02:23.265Z,1007.37
2018-02-10T06:03:00.074Z,1007.35
2018-02-10T06:03:37.661Z,1007.36
2018-02-10T06:04:13.054Z,1007.38
2018-02-10T06:04:48.236Z,1007.38
2018-02-10T06:05:23.366Z,1007.35
2018-02-10T06:06:01.355Z,1007.36
2018-02-10T06:06:36.859Z,1007.38
2018-02-10T06:07:12.057Z,1007.41
2018-02-10T06:07:47.342Z,1007.39
2018-02-10T06:08:22.859Z,1007.40
2018-02-10T06:08:58.345Z,1007.41
2018-02-10T06:09:33.761Z,1007.44
2018-02-10T06:10:09.047Z,1007.43
2018-02-10T06:10:48.204Z,1007.48
2018-02-10T06:11:23.280Z,1007.46
2018-02-10T06:12:01.301Z,1007.45
2018-02-10T06:12:36.929Z,1007.49
2018-02-10T06:13:12.230Z,1007.48
2018-02-10T06:13:51.246Z,1007.45
2018-02-10T06:14:26.963Z,1007.44
2018-02-10T06:15:02.078Z,1007.47
2018-02-10T06:15:37.762Z,1007.50
2018-02-10T06:16:13.015Z,1007.49
2018-02-10T06:16:48.198Z,1007.51
2018-02-10T06:17:23.507Z,1007.50
2018-02-10T06:17:59.030Z,1007.51
2018-02-10T06:18:34.401Z,1007.51
2018-02-10T06:19:11.911Z,1007.51
2018-02-10T06:19:46.991Z,1007.56
2018-02-10T06:20:22.411Z,1007.51
2018-02-10T06:20:57.879Z,1007.50
2018-02-10T06:21:35.122Z,1007.51
2018-02-10T06:22:13.006Z,1007.51
2018-02-10T06:22:48.524Z,1007.56
2018-02-10T06:23:23.945Z,1007.50
2018-02-10T06:23:59.241Z,1007.51
2018-02-10T06:24:34.570Z,1007.53
2018-02-10T06:27:50.009Z,1007.47
2018-02-10T06:28:25.485Z,1007.45
2018-02-10T06:29:00.869Z,1007.45
2018-02-10T06:29:36.926Z,1007.47
2018-02-10T06:30:12.012Z,1007.51
2018-02-10T06:30:47.314Z,1007.48
2018-02-10T06:31:22.594Z,1007.47
2018-02-10T06:31:57.764Z,1007.46
2018-02-10T06:32:32.850Z,1007.50
2018-02-10T06:33:08.186Z,1007.43
2018-02-10T06:33:43.545Z,1007.42
2018-02-10T06:34:18.634Z,1007.45
2018-02-10T06:34:56.178Z,1007.47
2018-02-10T06:35:31.865Z,1007.45
2018-02-10T06:36:07.034Z,1007.49
2018-02-10T06:36:42.117Z,1007.47
2018-02-10T06:37:20.601Z,1007.44
2018-02-10T06:37:56.180Z,1007.45
2018-02-10T06:38:36.536Z,1007.46
2018-02-10T06:39:11.626Z,1007.43
2018-02-10T06:39:51.019Z,1007.45
2018-02-10T06:40:27.885Z,1007.45
2018-02-10T06:41:10.592Z,1007.46
2018-02-10T06:41:48.864Z,1007.46
2018-02-10T06:42:24.858Z,1007.46
2018-02-10T06:43:00.033Z,1007.44
2018-02-10T06:43:35.528Z,1007.48
2018-02-10T06:44:11.160Z,1007.46
2018-02-10T06:44:46.633Z,1007.49
2018-02-10T06:45:23.926Z,1007.48
2018-02-10T06:45:59.403Z,1007.50
2018-02-10T06:46:38.593Z,1007.46
2018-02-10T06:47:14.079Z,1007.48
2018-02-10T06:47:49.482Z,1007.51
2018-02-10T06:48:27.657Z,1007.47
2018-02-10T06:49:03.045Z,1007.44
2018-02-10T06:49:38.138Z,1007.46
2018-02-10T06:50:16.671Z,1007.48
2018-02-10T06:50:55.201Z,1007.48
2018-02-10T06:51:34.469Z,1007.49
2018-02-10T06:52:09.925Z,1007.51
2018-02-10T06:52:45.475Z,1007.49
2018-02-10T06:53:20.581Z,1007.49
2018-02-10T06:53:56.086Z,1007.51
2018-02-10T06:54:31.463Z,1007.49
2018-02-10T06:55:06.902Z,1007.52
2018-02-10T06:55:45.823Z,1007.48
2018-02-10T06:56:21.422Z,1007.52
2018-02-10T06:56:59.707Z,1007.45
2018-02-10T06:57:34.902Z,1007.50
2018-02-10T06:58:10.235Z,1007.52
2018-02-10T06:58:45.471Z,1007.54
2018-02-10T06:59:20.947Z,1007.53
2018-02-10T06:59:57.343Z,1007.55
2018-02-10T07:00:32.763Z,1007.54
2018-02-10T07:01:08.833Z,1007.57
2018-02-10T07:01:44.453Z,1007.53
2018-02-10T07:02:19.647Z,1007.55
2018-02-10T07:02:55.157Z,1007.56
2018-02-10T07:03:30.432Z,1007.54
2018-02-10T07:04:05.749Z,1007.56
2018-02-10T07:04:41.553Z,1007.57
2018-02-10T07:05:17.174Z,1007.55
2018-02-10T07:05:52.465Z,1007.59
2018-02-10T07:06:28.549Z,1007.60
2018-02-10T07:07:03.755Z,1007.65
2018-02-10T07:07:39.722Z,1007.62
2018-02-10T07:08:16.877Z,1007.65
2018-02-10T07:08:51.997Z,1007.63
2018-02-10T07:09:27.412Z,1007.63
2018-02-10T07:10:02.705Z,1007.63
2018-02-10T07:10:38.945Z,1007.61
2018-02-10T07:11:19.516Z,1007.61
2018-02-10T07:11:56.881Z,1007.62
2018-02-10T07:12:36.495Z,1007.65
2018-02-10T07:13:13.694Z,1007.66
2018-02-10T07:13:53.275Z,1007.62
2018-02-10T07:14:29.492Z,1007.62
2018-02-10T07:15:08.977Z,1007.61
2018-02-10T07:15:45.603Z,1007.64